sensor_id;sensor_type;location;lat;lon;timestamp;P1;durP1;ratioP1;P2;durP2;ratioP2
72891;SDS011;61032;50.782;6.818;2023-03-05T00:00:04;12.63;;;2.97;;
72891;SDS011;61032;50.782;6.818;2023-03-05T00:01:05;7.45;;;1.98;;
72891;SDS011;61032;50.782;6.818;2023-03-05T00:03:07;4.20;;;1.17;;
72891;SDS011;61032;50.782;6.818;2023-03-05T00:04:09;5.45;;;1.98;;
72891;SDS011;61032;50.782;6.818;2023-03-05T00:05:12;6.60;;;1.10;;
72891;SDS011;61032;50.782;6.818;2023-03-05T00:06:12;5.00;;;1.60;;
72891;SDS011;61032;50.782;6.818;2023-03-05T00:07:12;10.02;;;1.58;;
72891;SDS011;61032;50.782;6.818;2023-03-05T00:08:13;5.60;;;1.75;;
72891;SDS011;61032;50.782;6.818;2023-03-05T00:09:13;6.18;;;1.10;;
72891;SDS011;61032;50.782;6.818;2023-03-05T00:10:13;4.95;;;2.20;;
72891;SDS011;61032;50.782;6.818;2023-03-05T00:11:14;7.68;;;2.47;;
72891;SDS011;61032;50.782;6.818;2023-03-05T00:12:15;7.38;;;1.38;;
72891;SDS011;61032;50.782;6.818;2023-03-05T00:13:16;5.50;;;1.35;;
72891;SDS011;61032;50.782;6.818;2023-03-05T00:14:16;9.95;;;1.88;;
72891;SDS011;61032;50.782;6.818;2023-03-05T00:15:16;5.63;;;1.30;;
72891;SDS011;61032;50.782;6.818;2023-03-05T00:16:17;6.18;;;1.20;;
72891;SDS011;61032;50.782;6.818;2023-03-05T00:17:17;5.18;;;1.15;;
72891;SDS011;61032;50.782;6.818;2023-03-05T00:18:18;7.20;;;2.53;;
72891;SDS011;61032;50.782;6.818;2023-03-05T00:19:18;4.85;;;1.48;;
72891;SDS011;61032;50.782;6.818;2023-03-05T00:20:19;5.95;;;1.15;;
72891;SDS011;61032;50.782;6.818;2023-03-05T00:21:26;6.22;;;2.28;;
72891;SDS011;61032;50.782;6.818;2023-03-05T00:22:28;8.98;;;1.65;;
72891;SDS011;61032;50.782;6.818;2023-03-05T00:23:29;10.57;;;1.67;;
72891;SDS011;61032;50.782;6.818;2023-03-05T00:24:29;3.53;;;1.10;;
72891;SDS011;61032;50.782;6.818;2023-03-05T00:25:29;7.93;;;1.55;;
72891;SDS011;61032;50.782;6.818;2023-03-05T00:26:30;7.55;;;1.48;;
72891;SDS011;61032;50.782;6.818;2023-03-05T00:27:33;8.52;;;2.70;;
72891;SDS011;61032;50.782;6.818;2023-03-05T00:28:33;17.83;;;4.07;;
72891;SDS011;61032;50.782;6.818;2023-03-05T00:29:33;12.32;;;2.88;;
72891;SDS011;61032;50.782;6.818;2023-03-05T00:30:34;9.52;;;2.58;;
72891;SDS011;61032;50.782;6.818;2023-03-05T00:31:35;7.90;;;2.25;;
72891;SDS011;61032;50.782;6.818;2023-03-05T00:32:36;6.63;;;2.65;;
72891;SDS011;61032;50.782;6.818;2023-03-05T00:33:36;11.80;;;3.08;;
72891;SDS011;61032;50.782;6.818;2023-03-05T00:34:37;5.30;;;1.38;;
72891;SDS011;61032;50.782;6.818;2023-03-05T00:35:38;6.90;;;1.50;;
72891;SDS011;61032;50.782;6.818;2023-03-05T00:36:43;7.03;;;1.73;;
72891;SDS011;61032;50.782;6.818;2023-03-05T00:37:46;3.85;;;1.65;;
72891;SDS011;61032;50.782;6.818;2023-03-05T00:38:46;4.82;;;1.42;;
72891;SDS011;61032;50.782;6.818;2023-03-05T00:39:46;5.15;;;1.40;;
72891;SDS011;61032;50.782;6.818;2023-03-05T00:40:48;6.57;;;1.90;;
72891;SDS011;61032;50.782;6.818;2023-03-05T00:41:49;4.53;;;1.90;;
72891;SDS011;61032;50.782;6.818;2023-03-05T00:42:50;7.28;;;1.63;;
72891;SDS011;61032;50.782;6.818;2023-03-05T00:43:50;4.45;;;1.42;;
72891;SDS011;61032;50.782;6.818;2023-03-05T00:44:50;4.30;;;1.50;;
72891;SDS011;61032;50.782;6.818;2023-03-05T00:45:50;6.32;;;1.65;;
72891;SDS011;61032;50.782;6.818;2023-03-05T00:46:51;8.63;;;2.38;;
72891;SDS011;61032;50.782;6.818;2023-03-05T00:47:51;6.57;;;2.00;;
72891;SDS011;61032;50.782;6.818;2023-03-05T00:48:52;3.72;;;1.17;;
72891;SDS011;61032;50.782;6.818;2023-03-05T00:49:53;4.85;;;1.00;;
72891;SDS011;61032;50.782;6.818;2023-03-05T00:50:53;4.95;;;1.35;;
72891;SDS011;61032;50.782;6.818;2023-03-05T00:51:54;4.65;;;1.02;;
72891;SDS011;61032;50.782;6.818;2023-03-05T00:52:54;5.15;;;1.55;;
72891;SDS011;61032;50.782;6.818;2023-03-05T00:53:54;4.32;;;1.35;;
72891;SDS011;61032;50.782;6.818;2023-03-05T00:54:55;5.55;;;1.45;;
72891;SDS011;61032;50.782;6.818;2023-03-05T00:55:55;5.03;;;1.25;;
72891;SDS011;61032;50.782;6.818;2023-03-05T00:56:55;7.15;;;2.25;;
72891;SDS011;61032;50.782;6.818;2023-03-05T00:57:56;8.00;;;1.73;;
72891;SDS011;61032;50.782;6.818;2023-03-05T00:58:56;3.67;;;0.90;;
72891;SDS011;61032;50.782;6.818;2023-03-05T00:59:57;5.78;;;1.95;;
72891;SDS011;61032;50.782;6.818;2023-03-05T01:00:58;4.45;;;1.27;;
72891;SDS011;61032;50.782;6.818;2023-03-05T01:01:59;5.68;;;1.20;;
72891;SDS011;61032;50.782;6.818;2023-03-05T01:02:59;4.28;;;0.70;;
72891;SDS011;61032;50.782;6.818;2023-03-05T01:04:00;5.40;;;1.60;;
72891;SDS011;61032;50.782;6.818;2023-03-05T01:05:00;4.10;;;1.00;;
72891;SDS011;61032;50.782;6.818;2023-03-05T01:06:03;4.72;;;1.05;;
72891;SDS011;61032;50.782;6.818;2023-03-05T01:07:05;6.15;;;1.55;;
72891;SDS011;61032;50.782;6.818;2023-03-05T01:08:06;6.32;;;1.40;;
72891;SDS011;61032;50.782;6.818;2023-03-05T01:09:06;6.20;;;1.30;;
72891;SDS011;61032;50.782;6.818;2023-03-05T01:10:06;5.93;;;1.10;;
72891;SDS011;61032;50.782;6.818;2023-03-05T01:11:08;6.03;;;1.65;;
72891;SDS011;61032;50.782;6.818;2023-03-05T01:12:09;4.93;;;1.52;;
72891;SDS011;61032;50.782;6.818;2023-03-05T01:13:10;5.50;;;1.60;;
72891;SDS011;61032;50.782;6.818;2023-03-05T01:14:10;7.32;;;2.25;;
72891;SDS011;61032;50.782;6.818;2023-03-05T01:15:10;9.80;;;1.67;;
72891;SDS011;61032;50.782;6.818;2023-03-05T01:16:11;5.03;;;1.40;;
72891;SDS011;61032;50.782;6.818;2023-03-05T01:17:11;6.72;;;1.60;;
72891;SDS011;61032;50.782;6.818;2023-03-05T01:18:12;4.43;;;1.67;;
72891;SDS011;61032;50.782;6.818;2023-03-05T01:19:12;3.60;;;0.80;;
72891;SDS011;61032;50.782;6.818;2023-03-05T01:20:16;4.82;;;0.90;;
72891;SDS011;61032;50.782;6.818;2023-03-05T01:21:18;4.55;;;1.73;;
72891;SDS011;61032;50.782;6.818;2023-03-05T01:22:19;5.68;;;1.70;;
72891;SDS011;61032;50.782;6.818;2023-03-05T01:23:19;3.47;;;0.98;;
72891;SDS011;61032;50.782;6.818;2023-03-05T01:24:20;6.15;;;1.25;;
72891;SDS011;61032;50.782;6.818;2023-03-05T01:25:20;6.93;;;1.52;;
72891;SDS011;61032;50.782;6.818;2023-03-05T01:26:21;4.10;;;1.25;;
72891;SDS011;61032;50.782;6.818;2023-03-05T01:27:21;8.40;;;1.52;;
72891;SDS011;61032;50.782;6.818;2023-03-05T01:28:22;2.92;;;0.82;;
72891;SDS011;61032;50.782;6.818;2023-03-05T01:29:22;5.60;;;0.77;;
72891;SDS011;61032;50.782;6.818;2023-03-05T01:30:23;5.32;;;0.90;;
72891;SDS011;61032;50.782;6.818;2023-03-05T01:31:23;3.47;;;0.90;;
72891;SDS011;61032;50.782;6.818;2023-03-05T01:32:24;3.03;;;0.70;;
72891;SDS011;61032;50.782;6.818;2023-03-05T01:33:24;4.15;;;1.15;;
72891;SDS011;61032;50.782;6.818;2023-03-05T01:34:25;3.20;;;0.80;;
72891;SDS011;61032;50.782;6.818;2023-03-05T01:35:25;4.55;;;0.93;;
72891;SDS011;61032;50.782;6.818;2023-03-05T01:36:26;6.03;;;1.10;;
72891;SDS011;61032;50.782;6.818;2023-03-05T01:37:27;7.15;;;1.02;;
72891;SDS011;61032;50.782;6.818;2023-03-05T01:38:27;3.63;;;0.90;;
72891;SDS011;61032;50.782;6.818;2023-03-05T01:39:28;3.72;;;1.30;;
72891;SDS011;61032;50.782;6.818;2023-03-05T01:40:29;4.47;;;0.77;;
72891;SDS011;61032;50.782;6.818;2023-03-05T01:41:30;5.60;;;0.98;;
72891;SDS011;61032;50.782;6.818;2023-03-05T01:42:30;2.70;;;0.80;;
72891;SDS011;61032;50.782;6.818;2023-03-05T01:43:31;2.50;;;0.80;;
72891;SDS011;61032;50.782;6.818;2023-03-05T01:44:31;2.78;;;0.77;;
72891;SDS011;61032;50.782;6.818;2023-03-05T01:45:32;3.15;;;0.88;;
72891;SDS011;61032;50.782;6.818;2023-03-05T01:46:36;3.42;;;0.65;;
72891;SDS011;61032;50.782;6.818;2023-03-05T01:47:37;3.85;;;0.90;;
72891;SDS011;61032;50.782;6.818;2023-03-05T01:48:38;1.55;;;0.77;;
72891;SDS011;61032;50.782;6.818;2023-03-05T01:49:41;5.13;;;1.00;;
72891;SDS011;61032;50.782;6.818;2023-03-05T01:50:41;4.57;;;1.30;;
72891;SDS011;61032;50.782;6.818;2023-03-05T01:53:01;2.70;;;0.95;;
72891;SDS011;61032;50.782;6.818;2023-03-05T01:54:05;3.72;;;0.57;;
72891;SDS011;61032;50.782;6.818;2023-03-05T01:55:12;3.50;;;0.60;;
72891;SDS011;61032;50.782;6.818;2023-03-05T01:56:15;3.78;;;0.75;;
72891;SDS011;61032;50.782;6.818;2023-03-05T01:57:17;1.90;;;0.40;;
72891;SDS011;61032;50.782;6.818;2023-03-05T01:58:20;3.20;;;0.73;;
72891;SDS011;61032;50.782;6.818;2023-03-05T01:59:21;2.30;;;0.93;;
72891;SDS011;61032;50.782;6.818;2023-03-05T02:00:25;3.25;;;0.80;;
72891;SDS011;61032;50.782;6.818;2023-03-05T02:01:30;2.80;;;0.70;;
72891;SDS011;61032;50.782;6.818;2023-03-05T02:02:33;3.85;;;0.88;;
72891;SDS011;61032;50.782;6.818;2023-03-05T02:03:33;2.67;;;0.77;;
72891;SDS011;61032;50.782;6.818;2023-03-05T02:04:40;2.97;;;0.90;;
72891;SDS011;61032;50.782;6.818;2023-03-05T02:05:44;4.15;;;0.88;;
72891;SDS011;61032;50.782;6.818;2023-03-05T02:06:44;3.72;;;1.15;;
72891;SDS011;61032;50.782;6.818;2023-03-05T02:07:46;3.88;;;0.70;;
72891;SDS011;61032;50.782;6.818;2023-03-05T02:08:46;4.15;;;0.70;;
72891;SDS011;61032;50.782;6.818;2023-03-05T02:09:47;2.50;;;0.90;;
72891;SDS011;61032;50.782;6.818;2023-03-05T02:10:48;2.65;;;0.90;;
72891;SDS011;61032;50.782;6.818;2023-03-05T02:11:55;4.50;;;0.80;;
72891;SDS011;61032;50.782;6.818;2023-03-05T02:12:57;2.45;;;1.35;;
72891;SDS011;61032;50.782;6.818;2023-03-05T02:14:00;1.88;;;0.70;;
72891;SDS011;61032;50.782;6.818;2023-03-05T02:15:01;3.42;;;1.00;;
72891;SDS011;61032;50.782;6.818;2023-03-05T02:16:02;6.15;;;1.20;;
72891;SDS011;61032;50.782;6.818;2023-03-05T02:17:02;3.33;;;1.05;;
72891;SDS011;61032;50.782;6.818;2023-03-05T02:18:03;1.55;;;0.57;;
72891;SDS011;61032;50.782;6.818;2023-03-05T02:19:06;4.85;;;1.13;;
72891;SDS011;61032;50.782;6.818;2023-03-05T02:20:13;6.70;;;1.35;;
72891;SDS011;61032;50.782;6.818;2023-03-05T02:21:25;4.40;;;1.20;;
72891;SDS011;61032;50.782;6.818;2023-03-05T02:22:27;3.75;;;0.60;;
72891;SDS011;61032;50.782;6.818;2023-03-05T02:23:29;3.00;;;0.50;;
72891;SDS011;61032;50.782;6.818;2023-03-05T02:24:35;5.43;;;0.80;;
72891;SDS011;61032;50.782;6.818;2023-03-05T02:25:36;3.58;;;1.00;;
72891;SDS011;61032;50.782;6.818;2023-03-05T02:26:36;3.30;;;0.90;;
72891;SDS011;61032;50.782;6.818;2023-03-05T02:27:37;1.95;;;0.68;;
72891;SDS011;61032;50.782;6.818;2023-03-05T02:28:49;5.55;;;0.68;;
72891;SDS011;61032;50.782;6.818;2023-03-05T02:29:54;3.45;;;0.70;;
72891;SDS011;61032;50.782;6.818;2023-03-05T02:30:55;2.58;;;0.57;;
72891;SDS011;61032;50.782;6.818;2023-03-05T02:31:55;3.22;;;0.75;;
72891;SDS011;61032;50.782;6.818;2023-03-05T02:32:55;6.15;;;1.83;;
72891;SDS011;61032;50.782;6.818;2023-03-05T02:33:56;4.10;;;0.75;;
72891;SDS011;61032;50.782;6.818;2023-03-05T02:34:56;2.05;;;0.70;;
72891;SDS011;61032;50.782;6.818;2023-03-05T02:35:56;4.38;;;0.90;;
72891;SDS011;61032;50.782;6.818;2023-03-05T02:36:57;2.03;;;0.90;;
72891;SDS011;61032;50.782;6.818;2023-03-05T02:37:57;3.63;;;0.80;;
72891;SDS011;61032;50.782;6.818;2023-03-05T02:38:57;4.45;;;1.25;;
72891;SDS011;61032;50.782;6.818;2023-03-05T02:39:58;4.15;;;0.68;;
72891;SDS011;61032;50.782;6.818;2023-03-05T02:40:58;4.90;;;0.90;;
72891;SDS011;61032;50.782;6.818;2023-03-05T02:41:59;4.63;;;1.35;;
72891;SDS011;61032;50.782;6.818;2023-03-05T02:42:59;3.28;;;0.98;;
72891;SDS011;61032;50.782;6.818;2023-03-05T02:43:59;5.70;;;1.10;;
72891;SDS011;61032;50.782;6.818;2023-03-05T02:45:00;4.32;;;1.00;;
72891;SDS011;61032;50.782;6.818;2023-03-05T02:46:01;3.50;;;0.93;;
72891;SDS011;61032;50.782;6.818;2023-03-05T02:47:01;6.30;;;0.85;;
72891;SDS011;61032;50.782;6.818;2023-03-05T02:48:02;7.13;;;1.00;;
72891;SDS011;61032;50.782;6.818;2023-03-05T02:49:02;7.53;;;1.00;;
72891;SDS011;61032;50.782;6.818;2023-03-05T02:50:03;2.83;;;0.80;;
72891;SDS011;61032;50.782;6.818;2023-03-05T02:51:04;5.82;;;1.35;;
72891;SDS011;61032;50.782;6.818;2023-03-05T02:52:05;5.57;;;0.90;;
72891;SDS011;61032;50.782;6.818;2023-03-05T02:53:06;1.85;;;0.75;;
72891;SDS011;61032;50.782;6.818;2023-03-05T02:54:06;5.15;;;0.57;;
72891;SDS011;61032;50.782;6.818;2023-03-05T02:55:07;3.25;;;0.73;;
72891;SDS011;61032;50.782;6.818;2023-03-05T02:56:08;3.00;;;0.52;;
72891;SDS011;61032;50.782;6.818;2023-03-05T02:57:08;3.90;;;0.70;;
72891;SDS011;61032;50.782;6.818;2023-03-05T02:58:08;5.13;;;0.93;;
72891;SDS011;61032;50.782;6.818;2023-03-05T02:59:08;4.13;;;0.60;;
72891;SDS011;61032;50.782;6.818;2023-03-05T03:00:09;2.45;;;0.90;;
72891;SDS011;61032;50.782;6.818;2023-03-05T03:01:10;2.85;;;0.63;;
72891;SDS011;61032;50.782;6.818;2023-03-05T03:02:10;1.88;;;0.40;;
72891;SDS011;61032;50.782;6.818;2023-03-05T03:03:12;1.25;;;0.43;;
72891;SDS011;61032;50.782;6.818;2023-03-05T03:04:12;3.63;;;0.43;;
72891;SDS011;61032;50.782;6.818;2023-03-05T03:05:12;4.10;;;0.52;;
72891;SDS011;61032;50.782;6.818;2023-03-05T03:06:13;3.03;;;0.50;;
72891;SDS011;61032;50.782;6.818;2023-03-05T03:07:13;2.50;;;0.60;;
72891;SDS011;61032;50.782;6.818;2023-03-05T03:08:14;3.33;;;0.90;;
72891;SDS011;61032;50.782;6.818;2023-03-05T03:09:14;3.10;;;0.77;;
72891;SDS011;61032;50.782;6.818;2023-03-05T03:10:15;2.92;;;0.60;;
72891;SDS011;61032;50.782;6.818;2023-03-05T03:11:16;4.10;;;0.80;;
72891;SDS011;61032;50.782;6.818;2023-03-05T03:12:17;2.58;;;0.70;;
72891;SDS011;61032;50.782;6.818;2023-03-05T03:13:17;4.43;;;0.55;;
72891;SDS011;61032;50.782;6.818;2023-03-05T03:14:18;2.15;;;0.70;;
72891;SDS011;61032;50.782;6.818;2023-03-05T03:15:19;2.83;;;0.60;;
72891;SDS011;61032;50.782;6.818;2023-03-05T03:16:19;2.90;;;0.57;;
72891;SDS011;61032;50.782;6.818;2023-03-05T03:17:20;4.53;;;0.80;;
72891;SDS011;61032;50.782;6.818;2023-03-05T03:18:20;4.15;;;0.90;;
72891;SDS011;61032;50.782;6.818;2023-03-05T03:19:20;2.90;;;0.52;;
72891;SDS011;61032;50.782;6.818;2023-03-05T03:20:21;2.70;;;0.50;;
72891;SDS011;61032;50.782;6.818;2023-03-05T03:21:22;3.35;;;0.73;;
72891;SDS011;61032;50.782;6.818;2023-03-05T03:22:24;3.25;;;0.82;;
72891;SDS011;61032;50.782;6.818;2023-03-05T03:23:24;4.85;;;0.70;;
72891;SDS011;61032;50.782;6.818;2023-03-05T03:24:25;3.17;;;0.73;;
72891;SDS011;61032;50.782;6.818;2023-03-05T03:25:26;3.17;;;0.68;;
72891;SDS011;61032;50.782;6.818;2023-03-05T03:26:26;2.55;;;0.57;;
72891;SDS011;61032;50.782;6.818;2023-03-05T03:27:27;5.70;;;1.30;;
72891;SDS011;61032;50.782;6.818;2023-03-05T03:28:27;3.45;;;0.80;;
72891;SDS011;61032;50.782;6.818;2023-03-05T03:29:27;1.55;;;0.65;;
72891;SDS011;61032;50.782;6.818;2023-03-05T03:30:27;2.00;;;0.50;;
72891;SDS011;61032;50.782;6.818;2023-03-05T03:31:28;4.70;;;1.02;;
72891;SDS011;61032;50.782;6.818;2023-03-05T03:32:28;3.15;;;0.90;;
72891;SDS011;61032;50.782;6.818;2023-03-05T03:33:28;2.85;;;0.75;;
72891;SDS011;61032;50.782;6.818;2023-03-05T03:34:29;3.83;;;0.75;;
72891;SDS011;61032;50.782;6.818;2023-03-05T03:35:29;4.68;;;0.82;;
72891;SDS011;61032;50.782;6.818;2023-03-05T03:36:29;3.33;;;0.70;;
72891;SDS011;61032;50.782;6.818;2023-03-05T03:37:31;2.50;;;0.77;;
72891;SDS011;61032;50.782;6.818;2023-03-05T03:38:31;3.97;;;0.80;;
72891;SDS011;61032;50.782;6.818;2023-03-05T03:39:31;2.92;;;0.95;;
72891;SDS011;61032;50.782;6.818;2023-03-05T03:40:31;5.05;;;0.80;;
72891;SDS011;61032;50.782;6.818;2023-03-05T03:41:32;4.15;;;0.60;;
72891;SDS011;61032;50.782;6.818;2023-03-05T03:42:33;2.85;;;0.73;;
72891;SDS011;61032;50.782;6.818;2023-03-05T03:43:34;3.38;;;0.82;;
72891;SDS011;61032;50.782;6.818;2023-03-05T03:44:35;4.65;;;0.60;;
72891;SDS011;61032;50.782;6.818;2023-03-05T03:45:38;2.13;;;0.50;;
72891;SDS011;61032;50.782;6.818;2023-03-05T03:46:39;5.03;;;0.70;;
72891;SDS011;61032;50.782;6.818;2023-03-05T03:47:40;2.78;;;0.70;;
72891;SDS011;61032;50.782;6.818;2023-03-05T03:48:41;5.53;;;0.93;;
72891;SDS011;61032;50.782;6.818;2023-03-05T03:49:41;5.53;;;1.02;;
72891;SDS011;61032;50.782;6.818;2023-03-05T03:50:42;2.53;;;0.57;;
72891;SDS011;61032;50.782;6.818;2023-03-05T03:51:43;2.95;;;0.80;;
72891;SDS011;61032;50.782;6.818;2023-03-05T03:52:43;2.08;;;0.75;;
72891;SDS011;61032;50.782;6.818;2023-03-05T03:53:43;3.38;;;0.50;;
72891;SDS011;61032;50.782;6.818;2023-03-05T03:54:44;2.05;;;0.60;;
72891;SDS011;61032;50.782;6.818;2023-03-05T03:55:44;7.50;;;1.40;;
72891;SDS011;61032;50.782;6.818;2023-03-05T03:56:46;5.35;;;0.80;;
72891;SDS011;61032;50.782;6.818;2023-03-05T03:57:46;3.25;;;0.47;;
72891;SDS011;61032;50.782;6.818;2023-03-05T03:58:48;2.60;;;0.73;;
72891;SDS011;61032;50.782;6.818;2023-03-05T03:59:50;4.10;;;0.80;;
72891;SDS011;61032;50.782;6.818;2023-03-05T04:00:50;2.40;;;0.52;;
72891;SDS011;61032;50.782;6.818;2023-03-05T04:01:51;3.15;;;0.77;;
72891;SDS011;61032;50.782;6.818;2023-03-05T04:02:51;3.63;;;1.40;;
72891;SDS011;61032;50.782;6.818;2023-03-05T04:03:51;5.95;;;0.70;;
72891;SDS011;61032;50.782;6.818;2023-03-05T04:04:51;2.72;;;0.80;;
72891;SDS011;61032;50.782;6.818;2023-03-05T04:05:52;5.68;;;0.90;;
72891;SDS011;61032;50.782;6.818;2023-03-05T04:06:52;3.63;;;1.30;;
72891;SDS011;61032;50.782;6.818;2023-03-05T04:07:52;3.88;;;1.10;;
72891;SDS011;61032;50.782;6.818;2023-03-05T04:08:53;3.95;;;0.68;;
72891;SDS011;61032;50.782;6.818;2023-03-05T04:09:54;2.25;;;0.70;;
72891;SDS011;61032;50.782;6.818;2023-03-05T04:10:54;3.72;;;0.60;;
72891;SDS011;61032;50.782;6.818;2023-03-05T04:11:54;2.70;;;0.63;;
72891;SDS011;61032;50.782;6.818;2023-03-05T04:12:54;7.00;;;0.88;;
72891;SDS011;61032;50.782;6.818;2023-03-05T04:13:55;4.05;;;0.93;;
72891;SDS011;61032;50.782;6.818;2023-03-05T04:14:55;5.53;;;0.63;;
72891;SDS011;61032;50.782;6.818;2023-03-05T04:15:55;3.80;;;0.60;;
72891;SDS011;61032;50.782;6.818;2023-03-05T04:16:57;3.22;;;0.82;;
72891;SDS011;61032;50.782;6.818;2023-03-05T04:17:57;2.17;;;1.50;;
72891;SDS011;61032;50.782;6.818;2023-03-05T04:18:58;4.07;;;0.70;;
72891;SDS011;61032;50.782;6.818;2023-03-05T04:19:58;4.57;;;1.13;;
72891;SDS011;61032;50.782;6.818;2023-03-05T04:20:58;3.70;;;0.80;;
72891;SDS011;61032;50.782;6.818;2023-03-05T04:21:59;3.53;;;0.80;;
72891;SDS011;61032;50.782;6.818;2023-03-05T04:22:59;5.60;;;0.90;;
72891;SDS011;61032;50.782;6.818;2023-03-05T04:23:59;1.85;;;0.40;;
72891;SDS011;61032;50.782;6.818;2023-03-05T04:24:59;5.15;;;0.77;;
72891;SDS011;61032;50.782;6.818;2023-03-05T04:26:02;5.03;;;0.65;;
72891;SDS011;61032;50.782;6.818;2023-03-05T04:27:03;3.70;;;0.82;;
72891;SDS011;61032;50.782;6.818;2023-03-05T04:28:04;2.50;;;0.73;;
72891;SDS011;61032;50.782;6.818;2023-03-05T04:29:04;2.85;;;0.65;;
72891;SDS011;61032;50.782;6.818;2023-03-05T04:30:05;4.07;;;0.85;;
72891;SDS011;61032;50.782;6.818;2023-03-05T04:31:07;3.13;;;1.23;;
72891;SDS011;61032;50.782;6.818;2023-03-05T04:32:07;3.10;;;1.23;;
72891;SDS011;61032;50.782;6.818;2023-03-05T04:33:08;4.57;;;0.73;;
72891;SDS011;61032;50.782;6.818;2023-03-05T04:34:08;2.55;;;0.63;;
72891;SDS011;61032;50.782;6.818;2023-03-05T04:35:08;2.58;;;0.50;;
72891;SDS011;61032;50.782;6.818;2023-03-05T04:36:09;6.82;;;1.55;;
72891;SDS011;61032;50.782;6.818;2023-03-05T04:37:09;2.92;;;0.95;;
72891;SDS011;61032;50.782;6.818;2023-03-05T04:38:10;7.80;;;0.95;;
72891;SDS011;61032;50.782;6.818;2023-03-05T04:39:10;3.97;;;0.60;;
72891;SDS011;61032;50.782;6.818;2023-03-05T04:40:11;3.53;;;0.65;;
72891;SDS011;61032;50.782;6.818;2023-03-05T04:41:11;3.75;;;0.70;;
72891;SDS011;61032;50.782;6.818;2023-03-05T04:42:11;3.67;;;0.85;;
72891;SDS011;61032;50.782;6.818;2023-03-05T04:43:12;2.47;;;0.57;;
72891;SDS011;61032;50.782;6.818;2023-03-05T04:44:13;1.92;;;0.55;;
72891;SDS011;61032;50.782;6.818;2023-03-05T04:45:13;1.50;;;1.00;;
72891;SDS011;61032;50.782;6.818;2023-03-05T04:46:16;3.03;;;0.75;;
72891;SDS011;61032;50.782;6.818;2023-03-05T04:47:16;7.10;;;1.02;;
72891;SDS011;61032;50.782;6.818;2023-03-05T04:48:17;4.95;;;0.88;;
72891;SDS011;61032;50.782;6.818;2023-03-05T04:49:18;3.00;;;0.80;;
72891;SDS011;61032;50.782;6.818;2023-03-05T04:50:18;2.45;;;0.77;;
72891;SDS011;61032;50.782;6.818;2023-03-05T04:51:18;1.90;;;0.73;;
72891;SDS011;61032;50.782;6.818;2023-03-05T04:52:19;4.18;;;0.82;;
72891;SDS011;61032;50.782;6.818;2023-03-05T04:53:19;3.50;;;0.90;;
72891;SDS011;61032;50.782;6.818;2023-03-05T04:54:19;3.60;;;0.70;;
72891;SDS011;61032;50.782;6.818;2023-03-05T04:55:20;4.95;;;0.68;;
72891;SDS011;61032;50.782;6.818;2023-03-05T04:56:20;3.17;;;0.82;;
72891;SDS011;61032;50.782;6.818;2023-03-05T04:57:20;5.05;;;1.52;;
72891;SDS011;61032;50.782;6.818;2023-03-05T04:58:21;3.60;;;0.70;;
72891;SDS011;61032;50.782;6.818;2023-03-05T04:59:21;3.50;;;0.77;;
72891;SDS011;61032;50.782;6.818;2023-03-05T05:00:22;4.40;;;1.10;;
72891;SDS011;61032;50.782;6.818;2023-03-05T05:01:22;2.22;;;0.70;;
72891;SDS011;61032;50.782;6.818;2023-03-05T05:02:23;4.70;;;0.80;;
72891;SDS011;61032;50.782;6.818;2023-03-05T05:03:23;2.95;;;0.70;;
72891;SDS011;61032;50.782;6.818;2023-03-05T05:04:23;4.47;;;0.70;;
72891;SDS011;61032;50.782;6.818;2023-03-05T05:05:24;3.15;;;0.88;;
72891;SDS011;61032;50.782;6.818;2023-03-05T05:06:25;2.20;;;0.75;;
72891;SDS011;61032;50.782;6.818;2023-03-05T05:07:26;3.78;;;0.95;;
72891;SDS011;61032;50.782;6.818;2023-03-05T05:08:26;4.53;;;0.82;;
72891;SDS011;61032;50.782;6.818;2023-03-05T05:09:27;3.20;;;0.70;;
72891;SDS011;61032;50.782;6.818;2023-03-05T05:10:28;3.85;;;1.00;;
72891;SDS011;61032;50.782;6.818;2023-03-05T05:11:28;3.90;;;0.68;;
72891;SDS011;61032;50.782;6.818;2023-03-05T05:12:28;4.55;;;1.05;;
72891;SDS011;61032;50.782;6.818;2023-03-05T05:13:29;3.78;;;0.93;;
72891;SDS011;61032;50.782;6.818;2023-03-05T05:14:32;4.20;;;1.05;;
72891;SDS011;61032;50.782;6.818;2023-03-05T05:15:33;4.25;;;1.58;;
72891;SDS011;61032;50.782;6.818;2023-03-05T05:16:33;3.13;;;0.50;;
72891;SDS011;61032;50.782;6.818;2023-03-05T05:17:34;5.22;;;0.90;;
72891;SDS011;61032;50.782;6.818;2023-03-05T05:18:34;2.78;;;0.80;;
72891;SDS011;61032;50.782;6.818;2023-03-05T05:19:35;2.17;;;0.70;;
72891;SDS011;61032;50.782;6.818;2023-03-05T05:20:35;3.13;;;0.65;;
72891;SDS011;61032;50.782;6.818;2023-03-05T05:21:35;5.63;;;1.10;;
72891;SDS011;61032;50.782;6.818;2023-03-05T05:22:35;4.68;;;0.70;;
72891;SDS011;61032;50.782;6.818;2023-03-05T05:23:36;5.22;;;0.90;;
72891;SDS011;61032;50.782;6.818;2023-03-05T05:24:37;4.15;;;0.98;;
72891;SDS011;61032;50.782;6.818;2023-03-05T05:25:37;2.78;;;0.85;;
72891;SDS011;61032;50.782;6.818;2023-03-05T05:26:38;5.88;;;1.40;;
72891;SDS011;61032;50.782;6.818;2023-03-05T05:27:38;4.43;;;1.10;;
72891;SDS011;61032;50.782;6.818;2023-03-05T05:28:39;2.65;;;0.73;;
72891;SDS011;61032;50.782;6.818;2023-03-05T05:29:44;6.45;;;0.82;;
72891;SDS011;61032;50.782;6.818;2023-03-05T05:30:49;5.38;;;1.13;;
72891;SDS011;61032;50.782;6.818;2023-03-05T05:31:49;5.82;;;0.82;;
72891;SDS011;61032;50.782;6.818;2023-03-05T05:32:49;3.58;;;0.80;;
72891;SDS011;61032;50.782;6.818;2023-03-05T05:33:50;5.15;;;0.90;;
72891;SDS011;61032;50.782;6.818;2023-03-05T05:34:56;7.10;;;1.50;;
72891;SDS011;61032;50.782;6.818;2023-03-05T05:35:57;3.33;;;0.85;;
72891;SDS011;61032;50.782;6.818;2023-03-05T05:36:57;4.47;;;1.08;;
72891;SDS011;61032;50.782;6.818;2023-03-05T05:37:58;3.75;;;1.10;;
72891;SDS011;61032;50.782;6.818;2023-03-05T05:38:58;2.83;;;0.98;;
72891;SDS011;61032;50.782;6.818;2023-03-05T05:39:58;6.55;;;1.10;;
72891;SDS011;61032;50.782;6.818;2023-03-05T05:41:17;2.95;;;1.00;;
72891;SDS011;61032;50.782;6.818;2023-03-05T05:42:19;3.75;;;0.82;;
72891;SDS011;61032;50.782;6.818;2023-03-05T05:43:20;2.15;;;1.08;;
72891;SDS011;61032;50.782;6.818;2023-03-05T05:44:21;7.13;;;1.30;;
72891;SDS011;61032;50.782;6.818;2023-03-05T05:45:21;7.85;;;1.00;;
72891;SDS011;61032;50.782;6.818;2023-03-05T05:46:21;1.30;;;0.40;;
72891;SDS011;61032;50.782;6.818;2023-03-05T05:47:23;2.67;;;0.70;;
72891;SDS011;61032;50.782;6.818;2023-03-05T05:48:23;4.72;;;1.05;;
72891;SDS011;61032;50.782;6.818;2023-03-05T05:49:24;3.05;;;0.85;;
72891;SDS011;61032;50.782;6.818;2023-03-05T05:50:24;4.05;;;0.80;;
72891;SDS011;61032;50.782;6.818;2023-03-05T05:51:26;3.70;;;0.88;;
72891;SDS011;61032;50.782;6.818;2023-03-05T05:52:26;9.18;;;1.85;;
72891;SDS011;61032;50.782;6.818;2023-03-05T05:53:26;4.65;;;0.90;;
72891;SDS011;61032;50.782;6.818;2023-03-05T05:54:26;3.72;;;0.90;;
72891;SDS011;61032;50.782;6.818;2023-03-05T05:55:27;3.80;;;1.20;;
72891;SDS011;61032;50.782;6.818;2023-03-05T05:56:27;4.40;;;1.00;;
72891;SDS011;61032;50.782;6.818;2023-03-05T05:57:27;3.70;;;1.20;;
72891;SDS011;61032;50.782;6.818;2023-03-05T05:58:27;7.03;;;1.65;;
72891;SDS011;61032;50.782;6.818;2023-03-05T05:59:28;6.97;;;1.17;;
72891;SDS011;61032;50.782;6.818;2023-03-05T06:00:28;4.90;;;1.00;;
72891;SDS011;61032;50.782;6.818;2023-03-05T06:01:30;6.28;;;1.38;;
72891;SDS011;61032;50.782;6.818;2023-03-05T06:02:31;3.67;;;1.00;;
72891;SDS011;61032;50.782;6.818;2023-03-05T06:03:31;3.92;;;1.17;;
72891;SDS011;61032;50.782;6.818;2023-03-05T06:04:32;7.18;;;2.17;;
72891;SDS011;61032;50.782;6.818;2023-03-05T06:05:33;4.47;;;0.85;;
72891;SDS011;61032;50.782;6.818;2023-03-05T06:06:34;7.03;;;1.00;;
72891;SDS011;61032;50.782;6.818;2023-03-05T06:07:34;3.55;;;1.00;;
72891;SDS011;61032;50.782;6.818;2023-03-05T06:08:35;6.57;;;1.27;;
72891;SDS011;61032;50.782;6.818;2023-03-05T06:09:35;5.80;;;1.25;;